createdAt,value
2018-02-16T00:00:45.429Z,42.77
2018-02-16T00:03:12.967Z,42.90
2018-02-16T00:05:40.471Z,43.93
2018-02-16T00:08:08.032Z,54.40
2018-02-16T00:10:35.560Z,52.60
2018-02-16T00:13:03.076Z,53.67
2018-02-16T00:15:30.648Z,51.30
2018-02-16T00:17:58.136Z,50.40
2018-02-16T00:20:25.648Z,49.03
2018-02-16T00:22:53.231Z,52.97
2018-02-16T00:25:20.743Z,55.83
2018-02-16T00:27:48.247Z,57.83
2018-02-16T00:30:15.829Z,53.67
2018-02-16T00:32:43.340Z,54.87
2018-02-16T00:35:10.849Z,54.83
2018-02-16T00:37:38.569Z,51.67
2018-02-16T00:40:06.081Z,50.17
2018-02-16T00:42:33.642Z,48.93
2018-02-16T00:45:01.348Z,51.43
2018-02-16T00:47:28.860Z,50.27
2018-02-16T00:49:56.399Z,56.33
2018-02-16T00:52:23.954Z,47.63
2018-02-16T00:54:51.454Z,55.90
2018-02-16T00:57:19.735Z,45.73
2018-02-16T00:59:48.057Z,49.77
2018-02-16T01:02:15.551Z,46.50
2018-02-16T01:04:43.085Z,52.07
2018-02-16T01:07:11.375Z,46.00
2018-02-16T01:09:38.998Z,50.90
2018-02-16T01:12:06.501Z,44.70
2018-02-16T01:14:34.004Z,50.30
2018-02-16T01:17:01.539Z,51.70
2018-02-16T01:19:29.812Z,51.43
2018-02-16T01:21:58.115Z,46.97
2018-02-16T01:24:25.623Z,52.83
2018-02-16T01:26:53.146Z,51.80
2018-02-16T01:29:20.682Z,56.27
2018-02-16T01:31:49.059Z,52.20
2018-02-16T01:34:16.594Z,53.73
2018-02-16T01:36:44.133Z,49.30
2018-02-16T01:39:11.657Z,51.93
2018-02-16T01:41:39.164Z,53.73
2018-02-16T01:44:06.727Z,48.07
2018-02-16T01:46:34.344Z,51.87
2018-02-16T01:49:01.852Z,51.77
2018-02-16T01:51:30.139Z,59.40
2018-02-16T01:53:57.726Z,52.60
2018-02-16T01:56:25.239Z,53.10
2018-02-16T01:58:52.784Z,53.60
2018-02-16T02:01:20.311Z,54.00
2018-02-16T02:03:47.884Z,60.93
2018-02-16T02:06:15.617Z,55.13
2018-02-16T02:08:43.275Z,53.90
2018-02-16T02:11:10.784Z,59.23
2018-02-16T02:13:38.295Z,54.47
2018-02-16T02:16:05.832Z,44.77
2018-02-16T02:18:34.792Z,58.20
2018-02-16T02:21:02.317Z,43.40
2018-02-16T02:23:29.882Z,52.80
2018-02-16T02:25:57.375Z,46.27
2018-02-16T02:28:24.882Z,46.67
2018-02-16T02:30:53.619Z,47.30
2018-02-16T02:33:21.203Z,46.87
2018-02-16T02:35:50.015Z,50.10
2018-02-16T02:38:17.520Z,50.77
2018-02-16T02:40:45.049Z,46.60
2018-02-16T02:43:12.588Z,48.70
2018-02-16T02:45:40.087Z,47.60
2018-02-16T02:48:07.851Z,50.47
2018-02-16T02:50:35.377Z,45.83
2018-02-16T02:53:02.884Z,45.30
2018-02-16T02:55:30.419Z,45.63
2018-02-16T02:57:57.963Z,43.30
2018-02-16T03:00:25.471Z,41.60
2018-02-16T03:02:53.787Z,43.87
2018-02-16T03:05:21.878Z,45.80
2018-02-16T03:07:49.403Z,49.00
2018-02-16T03:10:16.947Z,45.63
2018-02-16T03:12:44.486Z,47.07
2018-02-16T03:15:12.007Z,50.90
2018-02-16T03:17:39.553Z,51.60
2018-02-16T03:20:07.091Z,48.93
2018-02-16T03:22:34.596Z,55.40
2018-02-16T03:25:02.100Z,48.57
2018-02-16T03:27:30.384Z,49.70
2018-02-16T03:29:57.883Z,44.23
2018-02-16T03:32:25.405Z,50.70
2018-02-16T03:34:52.912Z,42.40
2018-02-16T03:37:20.437Z,48.30
2018-02-16T03:39:48.041Z,49.77
2018-02-16T03:42:15.770Z,51.20
2018-02-16T03:44:43.959Z,49.73
2018-02-16T03:47:11.777Z,49.67
2018-02-16T03:49:39.302Z,49.87
2018-02-16T03:52:06.806Z,59.70
2018-02-16T03:54:34.331Z,51.40
2018-02-16T03:57:02.635Z,50.60
2018-02-16T03:59:30.145Z,56.40
2018-02-16T04:01:57.643Z,56.37
2018-02-16T04:04:25.193Z,60.40
2018-02-16T04:06:52.731Z,49.90
2018-02-16T04:09:21.043Z,56.07
2018-02-16T04:11:48.544Z,60.13
2018-02-16T04:14:16.058Z,47.53
2018-02-16T04:16:43.603Z,51.00
2018-02-16T04:19:12.250Z,49.03
2018-02-16T04:21:39.781Z,49.47
2018-02-16T04:24:07.319Z,48.30
2018-02-16T04:26:34.823Z,49.13
2018-02-16T04:29:02.366Z,50.90
2018-02-16T04:31:29.902Z,43.17
2018-02-16T04:33:57.437Z,43.17
2018-02-16T04:36:25.736Z,44.87
2018-02-16T04:38:53.380Z,45.43
2018-02-16T04:41:20.891Z,49.57
2018-02-16T04:43:48.406Z,48.30
2018-02-16T04:46:15.940Z,48.07
2018-02-16T04:48:44.252Z,50.73
2018-02-16T04:51:11.752Z,47.23
2018-02-16T04:53:39.252Z,49.93
2018-02-16T04:56:06.775Z,48.43
2018-02-16T04:58:34.265Z,52.77
2018-02-16T05:01:01.829Z,54.13
2018-02-16T05:03:29.329Z,56.27
2018-02-16T05:06:02.050Z,57.43
2018-02-16T05:08:30.351Z,49.10
2018-02-16T05:10:58.639Z,48.53
2018-02-16T05:13:26.166Z,49.83
2018-02-16T05:15:53.723Z,48.70
2018-02-16T05:18:21.995Z,50.37
2018-02-16T05:20:49.535Z,47.87
2018-02-16T05:23:17.081Z,51.87
2018-02-16T05:25:44.591Z,47.20
2018-02-16T05:28:12.086Z,54.10
2018-02-16T05:30:39.628Z,52.70
2018-02-16T05:33:07.131Z,46.00
2018-02-16T05:35:34.648Z,51.07
2018-02-16T05:38:02.181Z,51.53
2018-02-16T05:40:29.718Z,52.60
2018-02-16T05:42:58.020Z,50.03
2018-02-16T05:45:25.512Z,62.77
2018-02-16T05:47:53.051Z,135.33
2018-02-16T05:50:20.554Z,113.43
2018-02-16T05:52:49.007Z,101.73
2018-02-16T05:55:16.514Z,100.13
2018-02-16T05:57:44.049Z,44.00
2018-02-16T06:00:11.557Z,48.70
2018-02-16T06:02:39.061Z,44.23
2018-02-16T06:05:06.580Z,43.57
2018-02-16T06:07:34.090Z,49.17
2018-02-16T06:10:02.379Z,50.27
2018-02-16T06:12:30.756Z,45.37
2018-02-16T06:14:59.025Z,45.97
2018-02-16T06:17:27.287Z,41.70
2018-02-16T06:19:54.808Z,39.73
2018-02-16T06:22:22.304Z,43.87
2018-02-16T06:24:49.837Z,43.30
2018-02-16T06:27:17.361Z,47.97
2018-02-16T06:29:44.855Z,42.80
2018-02-16T06:32:12.387Z,54.33
2018-02-16T06:34:39.948Z,54.43
2018-02-16T06:37:07.449Z,53.60
2018-02-16T06:39:34.979Z,42.90
2018-02-16T06:42:02.475Z,39.57
2018-02-16T06:44:30.739Z,37.00
2018-02-16T06:46:58.267Z,40.80
2018-02-16T06:49:25.759Z,43.93
2018-02-16T06:51:53.292Z,45.87
2018-02-16T06:54:20.804Z,50.90
2018-02-16T06:56:48.334Z,42.53
2018-02-16T06:59:15.821Z,43.37
2018-02-16T07:01:43.346Z,41.40
2018-02-16T07:04:10.964Z,45.73
2018-02-16T07:06:38.488Z,41.67
2018-02-16T07:09:06.778Z,45.87
2018-02-16T07:11:34.288Z,47.40
2018-02-16T07:14:01.827Z,46.40
2018-02-16T07:16:29.335Z,49.63
2018-02-16T07:18:57.645Z,49.20
2018-02-16T07:21:25.168Z,39.57
2018-02-16T07:23:53.525Z,53.50
2018-02-16T07:26:21.036Z,53.20
2018-02-16T07:28:48.542Z,49.37
2018-02-16T07:31:16.566Z,51.63
2018-02-16T07:33:44.060Z,47.83
2018-02-16T07:36:11.558Z,51.53
2018-02-16T07:38:39.867Z,61.10
2018-02-16T07:41:07.419Z,110.20
2018-02-16T07:43:34.940Z,51.47
2018-02-16T07:46:03.207Z,147.87
2018-02-16T07:48:31.507Z,77.50
2018-02-16T07:50:59.036Z,47.90
2018-02-16T07:53:26.560Z,47.30
2018-02-16T07:55:54.132Z,41.77
2018-02-16T07:58:22.542Z,39.47
2018-02-16T08:00:50.872Z,47.10
2018-02-16T08:03:18.343Z,47.13
2018-02-16T08:05:45.868Z,46.13
2018-02-16T08:08:13.396Z,43.67
2018-02-16T08:10:41.647Z,104.63
2018-02-16T08:13:09.178Z,58.97
2018-02-16T08:15:36.716Z,49.77
2018-02-16T08:18:04.235Z,54.07
2018-02-16T08:20:32.547Z,54.03
2018-02-16T08:23:00.060Z,46.60
2018-02-16T08:25:27.579Z,47.27
2018-02-16T08:27:55.073Z,45.30
2018-02-16T08:30:22.575Z,47.27
2018-02-16T08:32:50.230Z,51.03
2018-02-16T08:35:17.724Z,51.60
2018-02-16T08:37:45.221Z,41.30
2018-02-16T08:40:12.741Z,47.77
2018-02-16T08:42:40.272Z,45.07
2018-02-16T08:45:07.791Z,52.10
2018-02-16T08:47:35.325Z,131.00
2018-02-16T08:50:02.839Z,76.10
2018-02-16T08:52:30.355Z,48.17
2018-02-16T08:54:57.896Z,45.87
2018-02-16T08:57:25.435Z,45.77
2018-02-16T08:59:52.939Z,47.50
2018-02-16T09:02:20.438Z,54.53
2018-02-16T09:04:47.975Z,51.50
2018-02-16T09:07:16.252Z,46.20
2018-02-16T09:09:45.360Z,42.87
2018-02-16T09:12:12.899Z,43.97
2018-02-16T09:14:41.176Z,43.53
2018-02-16T09:17:09.447Z,49.67
2018-02-16T09:19:37.735Z,48.40
2018-02-16T09:22:06.716Z,39.17
2018-02-16T09:24:34.233Z,40.30
2018-02-16T09:27:01.718Z,43.30
2018-02-16T09:29:29.249Z,37.17
2018-02-16T09:31:56.757Z,34.73
2018-02-16T09:34:25.025Z,33.30
2018-02-16T09:36:53.808Z,30.60
2018-02-16T09:39:21.838Z,33.23
2018-02-16T09:41:49.343Z,32.47
2018-02-16T09:44:18.378Z,34.43
2018-02-16T09:46:45.909Z,38.27
2018-02-16T09:49:14.164Z,33.77
2018-02-16T09:51:41.715Z,32.97
2018-02-16T09:54:09.232Z,32.17
2018-02-16T09:56:36.722Z,42.03
2018-02-16T09:59:04.254Z,147.70
2018-02-16T10:01:31.784Z,46.73
2018-02-16T10:03:59.324Z,45.37
2018-02-16T10:06:27.626Z,31.23
2018-02-16T10:08:55.327Z,32.77
2018-02-16T10:11:22.858Z,32.73
2018-02-16T10:13:50.355Z,110.23
2018-02-16T10:16:17.889Z,109.07
2018-02-16T10:18:46.084Z,41.43
2018-02-16T10:21:13.650Z,32.50
2018-02-16T10:23:41.175Z,33.20
2018-02-16T10:26:08.683Z,35.70
2018-02-16T10:28:36.971Z,30.90
2018-02-16T10:31:05.252Z,35.10
2018-02-16T10:33:32.759Z,39.70
2018-02-16T10:36:00.319Z,35.07
2018-02-16T10:38:27.823Z,37.80
2018-02-16T10:40:56.107Z,39.63
2018-02-16T10:43:23.616Z,34.03
2018-02-16T10:45:51.870Z,32.97
2018-02-16T10:48:19.390Z,35.47
2018-02-16T10:50:47.667Z,34.10
2018-02-16T10:53:15.944Z,33.60
2018-02-16T10:55:44.221Z,33.30
2018-02-16T10:58:12.488Z,36.03
2018-02-16T11:00:46.395Z,35.23
2018-02-16T11:03:20.327Z,32.50
2018-02-16T11:05:50.615Z,36.60
2018-02-16T11:08:24.726Z,32.97
2018-02-16T11:10:52.212Z,32.53
2018-02-16T11:13:19.732Z,30.97
2018-02-16T11:15:47.218Z,40.00
2018-02-16T11:18:14.712Z,36.50
2018-02-16T11:20:42.256Z,28.30
2018-02-16T11:23:09.799Z,35.40
2018-02-16T11:25:37.291Z,34.70
2018-02-16T11:28:04.819Z,134.37
2018-02-16T11:30:32.336Z,82.50
2018-02-16T11:32:59.829Z,40.83
2018-02-16T11:35:28.124Z,33.63
2018-02-16T11:37:55.613Z,35.70
2018-02-16T11:40:23.133Z,39.67
2018-02-16T11:42:50.663Z,34.13
2018-02-16T11:45:18.911Z,34.70
2018-02-16T11:47:46.434Z,33.13
2018-02-16T11:50:13.958Z,33.23
2018-02-16T11:52:42.215Z,36.03
2018-02-16T11:55:09.716Z,34.23
2018-02-16T11:57:37.235Z,31.97
2018-02-16T12:00:04.720Z,35.30
2018-02-16T12:02:32.234Z,30.90
2018-02-16T12:04:59.717Z,28.10
2018-02-16T12:07:28.012Z,30.77
2018-02-16T12:09:56.305Z,31.97
2018-02-16T12:12:23.801Z,31.80
2018-02-16T12:14:51.322Z,28.43
2018-02-16T12:17:18.843Z,28.10
2018-02-16T12:19:47.138Z,32.63
2018-02-16T12:22:14.659Z,31.60
2018-02-16T12:24:42.179Z,35.77
2018-02-16T12:27:09.691Z,38.27
2018-02-16T12:29:37.998Z,38.13
2018-02-16T12:32:05.510Z,31.27
2018-02-16T12:34:33.048Z,34.70
2018-02-16T12:37:00.592Z,34.17
2018-02-16T12:39:28.111Z,32.07
2018-02-16T12:41:55.610Z,44.17
2018-02-16T12:44:23.129Z,52.73
2018-02-16T12:46:51.425Z,36.90
2018-02-16T12:49:18.964Z,44.00
2018-02-16T12:51:46.471Z,42.07
2018-02-16T12:54:13.964Z,37.63
2018-02-16T12:56:42.260Z,40.70
2018-02-16T12:59:10.538Z,38.27
2018-02-16T13:01:38.059Z,38.30
2018-02-16T13:04:05.632Z,39.90
2018-02-16T13:06:33.934Z,43.40
2018-02-16T13:09:01.464Z,37.33
2018-02-16T13:11:29.739Z,37.03
2018-02-16T13:13:57.284Z,35.20
2018-02-16T13:16:24.793Z,38.77
2018-02-16T13:18:52.291Z,37.17
2018-02-16T13:21:19.821Z,33.50
2018-02-16T13:23:47.319Z,38.17
2018-02-16T13:26:14.853Z,33.50
2018-02-16T13:28:42.351Z,38.80
2018-02-16T13:31:10.641Z,33.03
2018-02-16T13:33:38.899Z,36.80
2018-02-16T13:36:06.442Z,35.23
2018-02-16T13:38:33.979Z,38.17
2018-02-16T13:41:01.515Z,39.57
2018-02-16T13:43:29.039Z,42.47
2018-02-16T13:45:57.323Z,39.37
2018-02-16T13:48:25.624Z,33.90
2018-02-16T13:50:53.135Z,38.33
2018-02-16T13:53:20.667Z,38.60
2018-02-16T13:55:48.175Z,42.27
2018-02-16T13:58:16.487Z,33.87
2018-02-16T14:00:44.007Z,40.60
2018-02-16T14:03:12.283Z,41.70
2018-02-16T14:05:40.638Z,42.90
2018-02-16T14:08:08.140Z,44.10
2018-02-16T14:10:35.685Z,47.17
2018-02-16T14:13:03.967Z,50.00
2018-02-16T14:15:31.488Z,47.27
2018-02-16T14:17:58.983Z,45.67
2018-02-16T14:20:27.297Z,44.87
2018-02-16T14:22:54.800Z,40.60
2018-02-16T14:25:22.311Z,40.33
2018-02-16T14:27:49.832Z,40.80
2018-02-16T14:30:17.346Z,42.77
2018-02-16T14:32:44.910Z,44.10
2018-02-16T14:35:12.417Z,37.73
2018-02-16T14:37:39.930Z,37.20
2018-02-16T14:40:07.432Z,38.27
2018-02-16T14:42:35.006Z,39.00
2018-02-16T14:45:02.512Z,47.90
2018-02-16T14:47:30.048Z,46.87
2018-02-16T14:49:57.578Z,42.60
2018-02-16T14:52:25.077Z,41.27
2018-02-16T14:54:52.775Z,47.17
2018-02-16T14:57:20.291Z,40.60
2018-02-16T14:59:47.831Z,43.07
2018-02-16T15:02:15.432Z,44.57
2018-02-16T15:04:43.805Z,50.10
2018-02-16T15:07:11.325Z,46.40
2018-02-16T15:09:38.875Z,46.73
2018-02-16T15:12:06.412Z,50.13
2018-02-16T15:14:33.935Z,54.13
2018-02-16T15:17:01.544Z,44.57
2018-02-16T15:19:29.044Z,49.33
2018-02-16T15:21:56.555Z,50.47
2018-02-16T15:24:24.103Z,51.93
2018-02-16T15:26:51.611Z,50.83
2018-02-16T15:29:19.114Z,50.80
2018-02-16T15:31:46.668Z,54.50
2018-02-16T15:34:14.941Z,52.27
2018-02-16T15:36:43.208Z,53.67
2018-02-16T15:39:11.532Z,52.83
2018-02-16T15:41:39.032Z,50.90
2018-02-16T15:44:06.524Z,43.87
2018-02-16T15:46:34.056Z,45.47
2018-02-16T15:49:02.332Z,53.00
2018-02-16T15:51:30.614Z,46.90
2018-02-16T15:53:58.911Z,54.63
2018-02-16T15:56:26.411Z,45.40
2018-02-16T15:58:53.976Z,52.57
2018-02-16T16:01:21.509Z,49.87
2018-02-16T16:03:49.020Z,43.57
2018-02-16T16:06:17.321Z,53.80
2018-02-16T16:08:44.857Z,52.90
2018-02-16T16:11:13.135Z,47.43
2018-02-16T16:13:41.398Z,50.77
2018-02-16T16:16:08.943Z,48.97
2018-02-16T16:18:36.439Z,45.57
2018-02-16T16:21:04.717Z,55.00
2018-02-16T16:23:32.257Z,55.03
2018-02-16T16:26:00.528Z,62.10
2018-02-16T16:28:28.804Z,60.37
2018-02-16T16:30:57.132Z,51.97
2018-02-16T16:33:24.638Z,50.80
2018-02-16T16:35:52.916Z,52.13
2018-02-16T16:38:21.235Z,56.20
2018-02-16T16:40:48.815Z,53.97
2018-02-16T16:43:16.312Z,55.20
2018-02-16T16:45:43.890Z,54.47
2018-02-16T16:48:12.160Z,52.80
2018-02-16T16:50:40.424Z,50.80
2018-02-16T16:53:08.712Z,52.10
2018-02-16T16:55:36.984Z,48.47
2018-02-16T16:58:05.268Z,54.63
2018-02-16T17:00:33.652Z,42.47
2018-02-16T17:03:01.149Z,56.87
2018-02-16T17:05:28.642Z,52.30
2018-02-16T17:07:57.098Z,54.93
2018-02-16T17:10:24.620Z,53.20
2018-02-16T17:12:52.121Z,61.47
2018-02-16T17:15:19.668Z,74.83
2018-02-16T17:17:47.181Z,84.27
2018-02-16T17:20:14.688Z,66.23
2018-02-16T17:22:42.228Z,62.07
2018-02-16T17:25:09.732Z,63.10
2018-02-16T17:27:38.046Z,72.50
2018-02-16T17:30:05.608Z,64.60
2018-02-16T17:32:33.124Z,59.03
2018-02-16T17:35:01.397Z,66.37
2018-02-16T17:37:29.715Z,65.17
2018-02-16T17:39:57.207Z,65.73
2018-02-16T17:42:25.594Z,63.27
2018-02-16T17:44:53.135Z,57.13
2018-02-16T17:47:20.630Z,63.30
2018-02-16T17:49:48.903Z,68.77
2018-02-16T17:52:16.521Z,61.60
2018-02-16T17:54:44.026Z,93.33
2018-02-16T17:57:12.308Z,231.73
2018-02-16T17:59:40.720Z,123.83
2018-02-16T18:02:08.242Z,69.47
2018-02-16T18:04:36.509Z,51.80
2018-02-16T18:07:04.829Z,43.80
2018-02-16T18:09:32.526Z,51.17
2018-02-16T18:12:00.079Z,52.43
2018-02-16T18:14:27.676Z,55.20
2018-02-16T18:16:55.938Z,52.40
2018-02-16T18:19:23.449Z,52.70
2018-02-16T18:21:51.026Z,57.20
2018-02-16T18:24:18.523Z,59.07
2018-02-16T18:26:46.800Z,54.33
2018-02-16T18:29:15.164Z,51.53
2018-02-16T18:31:42.654Z,66.10
2018-02-16T18:34:10.166Z,60.27
2018-02-16T18:36:37.708Z,61.53
2018-02-16T18:39:05.202Z,63.03
2018-02-16T18:41:32.692Z,66.20
2018-02-16T18:44:00.504Z,66.23
2018-02-16T18:46:28.016Z,60.67
2018-02-16T18:48:55.572Z,53.37
2018-02-16T18:51:23.128Z,52.07
2018-02-16T18:53:50.636Z,52.00
2018-02-16T18:56:18.149Z,57.43
2018-02-16T18:58:45.689Z,54.83
2018-02-16T19:01:13.956Z,57.20
2018-02-16T19:03:42.232Z,64.43
2018-02-16T19:06:10.564Z,66.30
2018-02-16T19:08:38.128Z,66.07
2018-02-16T19:11:05.819Z,69.67
2018-02-16T19:19:37.292Z,64.90
2018-02-16T19:22:04.803Z,69.00
2018-02-16T19:24:32.318Z,65.27
2018-02-16T19:26:59.857Z,71.13
2018-02-16T19:29:27.373Z,67.63
2018-02-16T19:31:54.911Z,66.13
2018-02-16T19:34:23.190Z,63.53
2018-02-16T19:36:51.466Z,68.90
2018-02-16T19:39:19.882Z,64.80
2018-02-16T19:41:47.381Z,55.10
2018-02-16T19:44:14.882Z,72.17
2018-02-16T19:46:42.403Z,87.50
2018-02-16T19:49:09.901Z,93.00
2018-02-16T19:51:37.410Z,66.87
2018-02-16T19:54:04.951Z,62.47
2018-02-16T19:56:32.475Z,78.37
2018-02-16T19:58:59.973Z,78.37
2018-02-16T20:01:27.524Z,106.57
2018-02-16T20:03:55.043Z,88.33
2018-02-16T20:06:22.559Z,79.43
2018-02-16T20:08:50.094Z,81.97
2018-02-16T20:11:17.782Z,88.30
2018-02-16T20:13:45.299Z,76.27
2018-02-16T20:16:12.843Z,76.17
2018-02-16T20:18:40.356Z,81.07
2018-02-16T20:21:07.860Z,74.33
2018-02-16T20:23:35.411Z,76.93
2018-02-16T20:26:02.923Z,69.53
2018-02-16T20:28:30.481Z,73.10
2018-02-16T20:30:58.017Z,69.47
2018-02-16T20:33:25.524Z,72.77
2018-02-16T20:35:53.805Z,63.70
2018-02-16T20:38:22.102Z,72.30
2018-02-16T20:40:49.682Z,66.70
2018-02-16T20:43:17.198Z,145.03
2018-02-16T20:45:45.544Z,128.03
2018-02-16T20:48:13.047Z,85.63
2018-02-16T20:50:40.554Z,74.50
2018-02-16T20:53:09.005Z,73.77
2018-02-16T20:55:36.522Z,79.90
2018-02-16T20:58:04.035Z,70.87
2018-02-16T21:00:31.668Z,77.53
2018-02-16T21:02:59.185Z,73.77
2018-02-16T21:05:26.704Z,63.57
2018-02-16T21:07:54.245Z,68.57
2018-02-16T21:10:21.777Z,64.97
2018-02-16T21:12:50.254Z,60.30
2018-02-16T21:15:17.792Z,64.50
2018-02-16T21:17:45.331Z,192.97
2018-02-16T21:20:12.859Z,100.03
2018-02-16T21:22:51.643Z,67.67
2018-02-16T21:25:19.192Z,68.37
2018-02-16T21:27:46.700Z,64.87
2018-02-16T21:30:14.231Z,63.17
2018-02-16T21:32:42.525Z,61.73
2018-02-16T22:20:06.410Z,135.33
2018-02-16T22:22:33.943Z,141.03
2018-02-16T22:25:02.216Z,87.63
2018-02-16T22:27:30.512Z,73.30
2018-02-16T22:29:58.028Z,71.33
2018-02-16T22:32:25.543Z,63.33
2018-02-16T22:34:53.076Z,71.87
2018-02-16T22:37:20.596Z,70.93
2018-02-16T22:39:48.093Z,68.00
2018-02-16T22:42:15.640Z,62.97
2018-02-16T22:44:43.900Z,65.63
2018-02-16T22:47:11.404Z,69.10
2018-02-16T22:49:38.936Z,59.67
2018-02-16T22:52:06.431Z,61.90
2018-02-16T22:54:33.951Z,56.30
2018-02-16T22:57:02.276Z,50.70
2018-02-16T22:59:29.814Z,52.70
2018-02-16T23:01:57.313Z,56.20
2018-02-16T23:04:24.954Z,48.70
2018-02-16T23:06:52.471Z,49.23
2018-02-16T23:09:19.976Z,44.70
2018-02-16T23:11:47.516Z,43.47
2018-02-16T23:14:15.024Z,41.87
2018-02-16T23:16:43.298Z,38.43
2018-02-16T23:19:11.720Z,38.60
2018-02-16T23:21:39.419Z,41.23
2018-02-16T23:24:06.939Z,42.57
2018-02-16T23:26:34.474Z,37.77
2018-02-16T23:29:02.738Z,38.10
2018-02-16T23:31:31.019Z,36.90
2018-02-16T23:33:59.315Z,33.73
2018-02-16T23:36:26.830Z,35.93
2018-02-16T23:38:54.341Z,34.77
2018-02-16T23:41:21.972Z,34.67
2018-02-16T23:43:50.184Z,31.47
2018-02-16T23:46:18.453Z,28.43
2018-02-16T23:48:45.994Z,30.17
2018-02-16T23:51:13.515Z,32.03
2018-02-16T23:53:41.012Z,27.33
2018-02-16T23:56:08.590Z,26.30
2018-02-16T23:58:36.123Z,29.50
